Time;durP1;ratioP1;P1;durP2;ratioP2;P2;SDS_P1;SDS_P2;PMS_P1;PMS_P2;Temp;Humidity;BMP_temperature;BMP_pressure;BME280_temperature;BME280_humidity;BME280_pressure;Samples;Min_cycle;Max_cycle;Signal;HPM_P1;HPM_P2
2022/06/22 00:02:30;;;;;;;18.23;2.30;;;40.20;24.90;;;;;;4989080;28;20116;-71
2022/06/22 00:05:01;;;;;;;20.08;3.00;;;40.30;24.90;;;;;;4987270;28;20026;-70
2022/06/22 00:07:36;;;;;;;17.77;2.60;;;40.40;24.90;;;;;;4985799;28;20041;-70
2022/06/22 00:10:21;;;;;;;20.52;2.92;;;40.50;25.20;;;;;;4993493;28;20108;-70
2022/06/22 00:12:50;;;;;;;34.25;4.38;;;40.60;25.30;;;;;;4994298;28;20025;-70
2022/06/22 00:15:23;;;;;;;25.52;3.88;;;40.50;25.30;;;;;;4974720;28;20033;-67
2022/06/22 00:17:49;;;;;;;30.65;3.10;;;40.60;25.20;;;;;;4991090;28;20671;-68
2022/06/22 00:20:24;;;;;;;19.60;2.83;;;40.70;25.30;;;;;;4990548;28;20492;-69
2022/06/22 00:22:54;;;;;;;31.38;3.40;;;40.70;25.10;;;;;;4986834;28;20117;-67
2022/06/22 00:25:27;;;;;;;21.42;3.20;;;40.40;24.90;;;;;;4992317;28;20046;-69
2022/06/22 00:27:54;;;;;;;25.15;3.83;;;40.40;25.10;;;;;;5003659;28;20018;-69
2022/06/22 00:30:31;;;;;;;26.52;3.35;;;40.30;25.40;;;;;;4990079;28;20121;-69
2022/06/22 00:33:08;;;;;;;28.67;2.92;;;40.00;25.70;;;;;;4991232;28;20100;-68
2022/06/22 00:35:35;;;;;;;18.48;2.65;;;39.70;25.80;;;;;;4989208;28;20042;-72
2022/06/22 00:38:01;;;;;;;17.55;2.72;;;39.60;25.90;;;;;;4992084;28;20038;-68
2022/06/22 00:40:28;;;;;;;43.30;4.15;;;39.50;26.10;;;;;;4994605;28;20021;-68
2022/06/22 00:42:56;;;;;;;19.65;2.80;;;39.50;26.10;;;;;;4988240;28;20792;-69
2022/06/22 00:45:26;;;;;;;24.58;3.22;;;39.50;26.30;;;;;;4987929;28;20121;-69
2022/06/22 00:47:57;;;;;;;22.40;2.60;;;39.40;26.60;;;;;;4990982;28;20026;-70
2022/06/22 00:50:46;;;;;;;15.10;2.85;;;39.30;26.60;;;;;;4988524;28;20029;-70
2022/06/22 00:53:20;;;;;;;28.42;3.00;;;39.20;26.90;;;;;;4992656;28;20029;-71
2022/06/22 00:55:58;;;;;;;27.85;2.90;;;39.30;26.90;;;;;;4989897;28;20049;-68
2022/06/22 00:58:36;;;;;;;36.33;3.83;;;39.30;27.20;;;;;;4989543;28;20110;-70
2022/06/22 01:01:16;;;;;;;25.15;3.70;;;39.40;28.10;;;;;;5001581;28;20720;-69
2022/06/22 01:03:56;;;;;;;33.08;3.75;;;39.40;27.90;;;;;;4999379;28;20057;-67
2022/06/22 01:06:31;;;;;;;22.48;2.95;;;39.30;28.20;;;;;;5000022;28;20034;-68
2022/06/22 01:09:24;;;;;;;29.13;4.15;;;39.30;28.90;;;;;;4992309;28;20523;-67
2022/06/22 01:12:22;;;;;;;33.92;4.43;;;39.20;28.60;;;;;;5006694;28;20039;-67
2022/06/22 01:15:09;;;;;;;39.00;3.83;;;39.20;27.90;;;;;;4991656;28;20113;-67
2022/06/22 01:17:44;;;;;;;30.20;3.33;;;39.10;27.30;;;;;;4991715;28;20084;-66
2022/06/22 01:20:20;;;;;;;36.10;3.88;;;39.00;26.30;;;;;;4997676;28;20052;-67
2022/06/22 01:23:10;;;;;;;27.13;2.75;;;38.90;26.60;;;;;;4992720;28;20110;-67
2022/06/22 01:25:37;;;;;;;33.20;3.50;;;38.70;27.10;;;;;;4993771;28;20461;-68
2022/06/22 01:28:05;;;;;;;26.52;3.67;;;38.60;27.80;;;;;;4991332;28;20041;-67
2022/06/22 01:30:39;;;;;;;29.25;3.10;;;38.50;28.10;;;;;;4996420;28;20037;-69
2022/06/22 01:33:19;;;;;;;36.85;4.15;;;38.40;28.80;;;;;;4990550;28;20026;-71
2022/06/22 01:35:50;;;;;;;39.15;3.72;;;38.30;29.40;;;;;;4995127;28;20388;-68
2022/06/22 01:38:38;;;;;;;24.15;3.08;;;38.20;30.00;;;;;;4990452;28;20547;-68
2022/06/22 01:41:14;;;;;;;26.83;3.72;;;38.20;30.60;;;;;;4991436;28;20087;-68
2022/06/22 01:43:44;;;;;;;20.40;3.28;;;38.10;30.80;;;;;;4991505;28;20059;-70
2022/06/22 01:46:23;;;;;;;21.58;3.13;;;38.00;30.90;;;;;;4989986;28;20121;-70
2022/06/22 01:49:06;;;;;;;34.65;3.50;;;38.00;31.20;;;;;;4991277;28;20070;-73
2022/06/22 01:51:41;;;;;;;33.90;4.03;;;37.90;31.60;;;;;;4988750;28;20030;-70
2022/06/22 01:54:20;;;;;;;28.65;4.45;;;37.80;31.70;;;;;;4988605;28;20452;-69
2022/06/22 01:57:18;;;;;;;28.35;4.68;;;37.70;32.00;;;;;;4996822;28;20054;-71
2022/06/22 02:00:09;;;;;;;26.75;5.13;;;37.60;32.20;;;;;;4989689;28;20295;-68
2022/06/22 02:02:58;;;;;;;21.60;4.15;;;37.50;32.30;;;;;;4992434;28;20031;-66
2022/06/22 02:05:40;;;;;;;36.30;3.58;;;37.50;32.30;;;;;;4988101;28;20485;-70
2022/06/22 02:08:40;;;;;;;22.30;3.60;;;37.30;32.60;;;;;;4994739;28;20040;-69
2022/06/22 02:13:36;;;;;;;19.30;2.67;;;;;;;;;;5085396;27;20397;-71
2022/06/22 02:16:23;;;;;;;29.05;3.47;;;37.10;37.00;;;;;;5065835;28;20029;-72
2022/06/22 02:18:59;;;;;;;19.10;2.97;;;36.90;33.10;;;;;;5067669;28;20516;-71
2022/06/22 02:21:40;;;;;;;16.83;3.05;;;36.80;33.60;;;;;;5077871;28;20483;-70
2022/06/22 02:24:16;;;;;;;20.65;3.13;;;36.70;33.30;;;;;;5067348;28;20668;-71
2022/06/22 02:26:54;;;;;;;14.57;3.05;;;36.80;44.40;;;;;;5067020;28;20523;-69
2022/06/22 02:29:27;;;;;;;22.65;3.72;;;36.60;34.00;;;;;;5070118;28;20039;-67
2022/06/22 02:31:58;;;;;;;23.23;3.20;;;36.60;34.20;;;;;;5069671;28;20025;-69
2022/06/22 02:34:25;;;;;;;23.35;2.83;;;36.50;35.80;;;;;;5066925;28;20028;-70
2022/06/22 02:36:53;;;;;;;30.25;3.20;;;36.40;34.00;;;;;;5066467;28;20694;-69
2022/06/22 02:39:23;;;;;;;23.40;3.03;;;36.30;34.00;;;;;;5067852;28;20043;-72
2022/06/22 02:44:41;;;;;;;19.13;3.00;;;36.10;41.90;;;;;;5069500;28;20529;-70
2022/06/22 02:47:22;;;;;;;21.42;2.65;;;36.20;34.50;;;;;;5065728;28;20042;-67
2022/06/22 02:50:23;;;;;;;21.20;3.33;;;36.10;40.70;;;;;;5065399;28;20037;-68
2022/06/22 02:53:18;;;;;;;13.25;2.88;;;35.80;58.10;;;;;;5061888;28;20475;-68
2022/06/22 02:55:44;;;;;;;20.60;3.03;;;;;;;;;;5064691;28;20033;-68
2022/06/22 02:58:25;;;;;;;16.42;2.53;;;36.00;34.50;;;;;;5063503;28;20411;-67
2022/06/22 03:00:52;;;;;;;19.75;2.40;;;36.00;35.10;;;;;;5064989;28;20050;-70
2022/06/22 03:03:20;;;;;;;24.05;3.40;;;35.90;35.20;;;;;;5066712;28;20044;-70
2022/06/22 03:05:51;;;;;;;17.23;3.47;;;35.80;35.10;;;;;;5069626;28;20043;-68
2022/06/22 03:08:19;;;;;;;16.33;2.30;;;35.80;35.20;;;;;;5065399;28;20061;-64
2022/06/22 03:10:54;;;;;;;14.32;2.50;;;35.70;34.70;;;;;;5067966;28;20042;-66
2022/06/22 03:13:23;;;;;;;28.45;2.35;;;;;;;;;;5072301;28;20082;-69
2022/06/22 03:15:50;;;;;;;9.80;2.08;;;35.40;34.40;;;;;;5068722;28;20414;-66
2022/06/22 03:18:24;;;;;;;17.02;2.28;;;;;;;;;;5067236;28;20162;-65
2022/06/22 03:21:08;;;;;;;19.58;3.03;;;35.60;38.20;;;;;;5068566;28;20493;-66
2022/06/22 03:23:35;;;;;;;22.52;2.83;;;;;;;;;;5059640;28;20029;-66
2022/06/22 03:26:06;;;;;;;20.95;2.90;;;;;;;;;;5052908;28;20422;-68
2022/06/22 03:28:37;;;;;;;20.02;3.08;;;;;;;;;;5054553;28;20036;-67
2022/06/22 03:31:19;;;;;;;20.42;3.83;;;35.50;34.80;;;;;;5053426;28;20040;-66
2022/06/22 03:33:51;;;;;;;19.65;3.25;;;35.40;35.40;;;;;;5053584;28;20533;-67
2022/06/22 03:36:34;;;;;;;18.42;4.05;;;35.30;35.40;;;;;;5050826;28;20052;-69
2022/06/22 03:39:14;;;;;;;23.15;4.22;;;35.30;35.80;;;;;;5050591;28;20043;-65
2022/06/22 03:41:48;;;;;;;30.75;6.32;;;35.30;35.70;;;;;;5051778;28;20048;-68
2022/06/22 03:44:29;;;;;;;20.88;4.22;;;35.30;36.00;;;;;;5052359;28;20097;-65
2022/06/22 03:47:14;;;;;;;20.50;3.97;;;35.30;36.30;;;;;;5051352;28;20524;-65
2022/06/22 03:49:52;;;;;;;33.28;4.15;;;35.20;36.40;;;;;;5045850;28;20123;-66
2022/06/22 03:52:31;;;;;;;33.70;4.68;;;35.20;36.80;;;;;;5054604;28;20050;-66
2022/06/22 03:55:22;;;;;;;22.23;3.92;;;35.00;37.50;;;;;;5048052;28;20029;-66
2022/06/22 03:57:53;;;;;;;28.35;4.80;;;34.40;47.50;;;;;;5053336;28;20044;-68
2022/06/22 04:00:20;;;;;;;23.38;3.50;;;;;;;;;;5051210;28;20029;-67
2022/06/22 04:02:48;;;;;;;17.00;3.00;;;34.80;51.40;;;;;;5052646;28;20021;-66
2022/06/22 04:05:26;;;;;;;21.10;3.17;;;34.80;38.10;;;;;;5052410;28;20038;-67
2022/06/22 04:07:54;;;;;;;22.23;3.92;;;34.70;39.80;;;;;;5049720;28;20024;-65
2022/06/22 04:10:58;;;;;;;24.73;3.75;;;34.80;50.40;;;;;;5050939;28;20529;-65
2022/06/22 04:13:52;;;;;;;23.75;4.13;;;34.80;44.20;;;;;;4968912;28;20109;-66
2022/06/22 04:16:27;;;;;;;21.85;3.35;;;34.40;41.90;;;;;;4952768;28;20033;-69
2022/06/22 04:19:17;;;;;;;16.08;3.63;;;34.60;39.00;;;;;;4952698;28;20034;-66
2022/06/22 04:21:49;;;;;;;21.50;3.55;;;34.60;39.50;;;;;;4938114;28;20049;-64
2022/06/22 04:24:31;;;;;;;15.23;2.97;;;34.60;40.10;;;;;;4953107;28;20031;-67
2022/06/22 04:27:15;;;;;;;11.13;2.70;;;34.60;39.90;;;;;;4969224;28;20101;-67
2022/06/22 04:29:52;;;;;;;16.27;3.10;;;34.50;39.50;;;;;;4953179;28;20457;-67
2022/06/22 04:32:34;;;;;;;11.18;2.60;;;34.50;42.80;;;;;;4953481;28;20114;-68
2022/06/22 04:35:17;;;;;;;12.52;2.70;;;34.40;46.30;;;;;;4951980;28;20481;-68
2022/06/22 04:38:27;;;;;;;13.38;2.25;;;34.40;39.80;;;;;;4952733;28;20051;-69
2022/06/22 04:40:59;;;;;;;16.05;2.72;;;34.40;40.00;;;;;;4909022;28;20524;-66
2022/06/22 04:43:26;;;;;;;17.00;2.28;;;34.30;40.10;;;;;;4952863;28;20074;-67
2022/06/22 04:45:53;;;;;;;21.17;2.90;;;34.20;40.30;;;;;;4969021;28;20056;-66
2022/06/22 04:48:28;;;;;;;13.40;2.75;;;34.20;40.60;;;;;;5038666;28;20064;-66
2022/06/22 04:51:00;;;;;;;17.40;2.22;;;34.20;40.80;;;;;;5053880;28;20062;-66
2022/06/22 04:53:49;;;;;;;12.50;2.47;;;34.10;41.00;;;;;;5048357;28;20057;-68
2022/06/22 04:56:23;;;;;;;18.77;3.00;;;34.10;41.30;;;;;;5040453;28;20060;-67
2022/06/22 04:58:53;;;;;;;16.15;2.42;;;34.10;41.70;;;;;;5049887;28;20052;-66
2022/06/22 05:01:34;;;;;;;19.27;2.63;;;34.00;41.70;;;;;;5053933;28;20057;-71
2022/06/22 05:04:16;;;;;;;17.70;3.20;;;34.00;42.00;;;;;;5052393;28;20517;-69
2022/06/22 05:07:15;;;;;;;24.77;2.83;;;33.90;42.30;;;;;;5052781;28;20637;-68
2022/06/22 05:10:04;;;;;;;14.95;2.78;;;33.90;42.60;;;;;;5051894;28;20056;-69
2022/06/22 05:12:44;;;;;;;18.27;3.20;;;33.60;45.90;;;;;;5051739;28;20119;-68
2022/06/22 05:15:23;;;;;;;24.65;2.38;;;33.70;66.80;;;;;;5051868;28;20022;-66
2022/06/22 05:17:50;;;;;;;20.48;2.80;;;33.60;64.60;;;;;;5051296;28;20052;-69
2022/06/22 05:20:33;;;;;;;21.50;2.55;;;33.80;49.60;;;;;;5050697;28;20479;-65
2022/06/22 05:23:02;;;;;;;14.73;2.42;;;33.60;41.60;;;;;;5050764;28;20084;-66
2022/06/22 05:25:30;;;;;;;12.75;2.05;;;33.60;40.90;;;;;;5048068;28;20062;-67
2022/06/22 05:28:16;;;;;;;17.45;2.58;;;33.50;41.70;;;;;;5048511;28;20074;-70
2022/06/22 05:30:54;;;;;;;19.60;2.28;;;33.50;40.80;;;;;;5048726;28;20098;-68
2022/06/22 05:33:23;;;;;;;19.95;2.60;;;33.50;40.90;;;;;;5051444;28;20079;-67
2022/06/22 05:36:05;;;;;;;14.80;2.60;;;33.50;40.90;;;;;;5051118;28;20079;-70
2022/06/22 05:38:35;;;;;;;45.00;22.30;;;33.50;41.30;;;;;;5036918;28;20077;-69
2022/06/22 05:41:04;;;;;;;15.65;2.65;;;33.40;41.70;;;;;;5033901;28;20063;-66
2022/06/22 05:43:32;;;;;;;20.65;2.20;;;33.20;42.00;;;;;;5049796;28;20135;-68
2022/06/22 05:46:02;;;;;;;14.23;2.35;;;33.20;42.40;;;;;;5052143;28;20096;-67
2022/06/22 05:48:32;;;;;;;13.15;2.25;;;33.20;42.60;;;;;;5050849;28;20060;-66
2022/06/22 05:51:34;;;;;;;22.67;2.60;;;33.20;43.20;;;;;;5034301;28;20508;-65
2022/06/22 05:54:05;;;;;;;15.30;2.00;;;33.20;43.60;;;;;;5035694;28;20424;-67
2022/06/22 05:57:04;;;;;;;10.13;2.17;;;33.10;43.80;;;;;;5051926;28;20465;-68
2022/06/22 05:59:41;;;;;;;13.50;2.35;;;33.10;43.80;;;;;;5039431;28;20076;-65
2022/06/22 06:02:39;;;;;;;10.23;1.98;;;33.00;43.60;;;;;;5052162;28;20059;-67
2022/06/22 06:05:27;;;;;;;10.75;2.20;;;33.00;43.40;;;;;;5032028;28;20101;-67
2022/06/22 06:07:56;;;;;;;22.27;2.50;;;33.00;43.70;;;;;;5048210;28;20056;-67
2022/06/22 06:10:33;;;;;;;30.85;2.50;;;33.00;43.20;;;;;;5033242;28;20422;-64
2022/06/22 06:13:16;;;;;;;22.35;2.55;;;33.00;43.30;;;;;;5032418;28;20098;-69
2022/06/22 06:15:45;;;;;;;9.80;2.28;;;33.00;43.30;;;;;;5050126;28;20434;-68
2022/06/22 06:18:27;;;;;;;14.43;2.17;;;32.90;43.50;;;;;;5049729;28;20150;-68
2022/06/22 06:21:10;;;;;;;12.07;2.58;;;32.90;43.70;;;;;;5049063;28;20415;-69
2022/06/22 06:23:49;;;;;;;19.63;2.55;;;32.70;43.90;;;;;;5033581;28;20058;-68
2022/06/22 06:29:50;;;;;;;9.15;1.58;;;32.70;43.50;;;;;;5010639;28;20081;-66
2022/06/22 06:32:44;;;;;;;11.13;1.98;;;32.70;43.10;;;;;;4994056;28;20101;-67
2022/06/22 06:35:31;;;;;;;9.38;2.13;;;32.70;43.30;;;;;;5010795;28;20604;-66
2022/06/22 06:38:16;;;;;;;7.80;1.83;;;32.70;43.60;;;;;;5000239;28;20059;-67
2022/06/22 06:41:01;;;;;;;11.10;1.88;;;32.70;43.30;;;;;;5011614;28;20066;-67
2022/06/22 06:43:33;;;;;;;10.48;1.60;;;32.70;43.20;;;;;;5009045;28;20562;-67
2022/06/22 06:46:01;;;;;;;10.48;1.48;;;32.70;43.10;;;;;;4993565;28;20069;-67
2022/06/22 06:48:31;;;;;;;9.68;1.80;;;32.70;42.80;;;;;;4993701;28;20176;-66
2022/06/22 06:51:01;;;;;;;12.30;1.98;;;32.60;43.30;;;;;;4994724;28;20597;-66
2022/06/22 06:53:36;;;;;;;5.70;1.40;;;32.60;43.30;;;;;;5009445;28;20087;-67
2022/06/22 06:56:21;;;;;;;13.40;1.60;;;32.60;42.70;;;;;;5007329;28;20058;-65
2022/06/22 06:58:54;;;;;;;5.35;1.73;;;32.70;42.70;;;;;;4991866;28;20455;-67
2022/06/22 07:01:27;;;;;;;3.88;1.45;;;32.60;42.50;;;;;;5051090;28;20085;-69
2022/06/22 07:04:03;;;;;;;11.57;1.45;;;32.60;42.50;;;;;;5051985;28;20063;-67
2022/06/22 07:06:32;;;;;;;6.88;1.60;;;32.60;41.80;;;;;;5054496;28;20063;-68
2022/06/22 07:09:16;;;;;;;9.55;1.83;;;32.60;41.40;;;;;;5054699;28;20067;-66
2022/06/22 07:11:52;;;;;;;7.47;1.60;;;32.70;41.30;;;;;;5053961;28;20325;-68
2022/06/22 07:14:24;;;;;;;4.63;1.50;;;32.70;40.90;;;;;;5053487;28;20057;-68
2022/06/22 07:16:54;;;;;;;8.68;1.65;;;32.70;40.90;;;;;;5054145;28;20517;-68
2022/06/22 07:19:28;;;;;;;5.97;1.65;;;32.70;41.00;;;;;;5051670;28;20067;-68
2022/06/22 07:22:13;;;;;;;9.35;1.50;;;32.70;40.70;;;;;;5053350;28;20070;-69
2022/06/22 07:25:01;;;;;;;13.25;1.67;;;32.70;40.70;;;;;;5050577;28;20067;-67
2022/06/22 07:27:42;;;;;;;6.68;1.65;;;32.60;40.80;;;;;;5054396;28;20427;-67
2022/06/22 07:30:27;;;;;;;9.90;1.52;;;32.50;40.60;;;;;;5053723;28;20081;-66
2022/06/22 07:32:53;;;;;;;12.20;1.73;;;32.50;41.10;;;;;;5053844;28;20081;-68
2022/06/22 07:35:57;;;;;;;4.38;1.25;;;32.50;41.20;;;;;;5051684;28;20072;-69
2022/06/22 07:38:29;;;;;;;9.45;1.75;;;32.50;41.40;;;;;;5053223;28;20078;-67
2022/06/22 07:43:44;;;;;;;9.38;1.70;;;32.50;41.50;;;;;;5054698;28;20604;-68
2022/06/22 07:46:18;;;;;;;7.72;1.70;;;32.50;41.80;;;;;;5053401;28;20072;-67
2022/06/22 07:48:48;;;;;;;10.43;1.83;;;32.40;42.30;;;;;;5048307;28;20073;-69
2022/06/22 07:51:22;;;;;;;8.65;2.00;;;32.40;42.60;;;;;;5054769;28;20159;-68
2022/06/22 07:54:05;;;;;;;9.00;1.90;;;32.40;42.70;;;;;;5053699;28;20679;-67
2022/06/22 07:56:52;;;;;;;13.82;1.73;;;32.40;42.70;;;;;;5054126;28;20050;-67
2022/06/22 07:59:42;;;;;;;16.15;1.65;;;32.30;42.80;;;;;;5054809;28;20097;-68
2022/06/22 08:02:19;;;;;;;10.55;1.80;;;32.20;42.80;;;;;;5021206;28;20088;-69
2022/06/22 08:04:59;;;;;;;9.73;2.35;;;32.20;42.90;;;;;;5034402;28;20604;-67
2022/06/22 08:07:43;;;;;;;17.17;2.67;;;32.20;43.30;;;;;;5051009;28;20263;-68
2022/06/22 08:10:20;;;;;;;7.25;2.03;;;32.20;45.60;;;;;;5050310;28;20075;-66
2022/06/22 08:13:12;;;;;;;11.68;2.25;;;32.10;46.50;;;;;;5053506;28;20645;-67
2022/06/22 08:15:48;;;;;;;9.00;2.72;;;32.00;47.00;;;;;;5050855;28;20057;-69
2022/06/22 08:18:15;;;;;;;7.28;2.10;;;31.90;48.00;;;;;;5036673;28;20544;-67
2022/06/22 08:20:45;;;;;;;11.90;2.58;;;31.80;49.50;;;;;;5019159;28;20483;-66
2022/06/22 08:23:23;;;;;;;12.93;2.30;;;31.70;50.80;;;;;;5054759;28;20092;-69
2022/06/22 08:25:51;;;;;;;11.40;2.88;;;31.70;52.20;;;;;;5036458;28;20527;-66
2022/06/22 08:28:21;;;;;;;8.98;1.88;;;31.60;52.80;;;;;;5035085;28;20077;-66
2022/06/22 08:30:51;;;;;;;7.40;2.35;;;31.60;53.00;;;;;;5052541;28;20071;-65
2022/06/22 08:33:31;;;;;;;9.77;2.55;;;31.50;53.50;;;;;;5036176;28;20112;-66
2022/06/22 08:36:15;;;;;;;10.35;2.67;;;31.50;53.90;;;;;;5053223;28;20098;-67
2022/06/22 08:38:57;;;;;;;11.70;2.45;;;31.50;54.20;;;;;;5053487;28;20151;-66
2022/06/22 08:41:56;;;;;;;14.70;2.40;;;31.40;54.60;;;;;;5049391;28;20109;-66
2022/06/22 08:44:50;;;;;;;12.55;2.97;;;31.30;54.90;;;;;;5024524;28;20076;-68
2022/06/22 08:47:38;;;;;;;11.65;2.47;;;31.30;55.30;;;;;;5051284;28;20065;-67
2022/06/22 08:50:35;;;;;;;13.15;2.75;;;31.30;55.50;;;;;;5052493;28;20064;-68
2022/06/22 08:53:22;;;;;;;11.13;2.00;;;31.30;55.80;;;;;;5049942;28;20453;-68
2022/06/22 08:56:15;;;;;;;14.93;2.78;;;31.30;56.00;;;;;;5050023;28;20467;-67
2022/06/22 08:59:18;;;;;;;10.65;2.80;;;31.30;56.20;;;;;;5052619;28;20587;-68
2022/06/22 09:02:02;;;;;;;12.45;2.92;;;31.30;56.30;;;;;;5053725;28;20155;-67
2022/06/22 09:04:56;;;;;;;19.17;2.67;;;31.40;56.30;;;;;;5050885;28;20059;-68
2022/06/22 09:07:39;;;;;;;11.80;3.72;;;31.30;56.20;;;;;;5050631;28;20071;-68
2022/06/22 09:10:09;;;;;;;14.40;3.53;;;31.50;56.00;;;;;;5052309;28;20069;-72
2022/06/22 09:12:39;;;;;;;11.15;2.80;;;31.70;55.40;;;;;;5050555;28;20106;-70
2022/06/22 09:15:33;;;;;;;15.57;3.30;;;31.80;55.50;;;;;;5048211;28;20570;-69
2022/06/22 09:18:31;;;;;;;13.30;2.47;;;31.80;55.30;;;;;;5050379;28;20538;-69
2022/06/22 09:21:27;;;;;;;14.25;2.47;;;31.80;55.40;;;;;;5033378;28;20121;-69
2022/06/22 09:24:04;;;;;;;8.05;2.55;;;31.80;55.40;;;;;;5008226;28;20119;-69
2022/06/22 09:26:58;;;;;;;9.95;2.40;;;31.80;55.60;;;;;;5008750;28;20081;-69
2022/06/22 09:29:45;;;;;;;18.95;2.70;;;31.80;55.60;;;;;;4994338;28;20619;-66
2022/06/22 09:32:32;;;;;;;12.40;2.65;;;31.80;55.80;;;;;;5009481;28;20082;-69
2022/06/22 09:35:08;;;;;;;11.18;2.55;;;31.70;55.90;;;;;;5009572;28;20995;-67
2022/06/22 09:37:46;;;;;;;12.68;2.25;;;31.70;56.10;;;;;;4996046;28;20473;-68
2022/06/22 09:40:18;;;;;;;12.30;2.38;;;31.70;56.20;;;;;;4980227;28;20101;-67
2022/06/22 09:43:10;;;;;;;17.75;2.40;;;31.70;56.20;;;;;;4994143;28;20465;-68
2022/06/22 09:45:59;;;;;;;13.27;2.53;;;31.60;56.20;;;;;;4994285;28;20062;-68
2022/06/22 09:48:47;;;;;;;13.70;2.33;;;31.60;56.20;;;;;;4993312;28;20168;-69
2022/06/22 09:51:47;;;;;;;9.55;2.17;;;31.60;56.40;;;;;;5007359;28;20077;-68
2022/06/22 09:56:19;;;;;;;17.27;2.60;;;31.50;56.50;;;;;;5008965;28;20679;-68
2022/06/22 09:57:07;;;;;;;17.53;2.57;;;31.50;56.60;;;;;;5010544;28;20145;-69
2022/06/22 09:59:52;;;;;;;21.45;2.33;;;31.60;56.30;;;;;;5000804;28;20741;-69
2022/06/22 10:02:46;;;;;;;15.23;2.20;;;31.60;56.20;;;;;;5053045;28;20096;-68
2022/06/22 10:05:28;;;;;;;13.65;2.72;;;31.70;56.00;;;;;;5050414;28;20065;-68
2022/06/22 10:08:11;;;;;;;21.23;2.90;;;31.70;56.00;;;;;;5051468;28;20074;-68
2022/06/22 10:11:05;;;;;;;14.63;2.58;;;31.50;56.50;;;;;;5048298;28;20082;-69
2022/06/22 10:13:40;;;;;;;25.88;3.08;;;31.50;57.40;;;;;;5049955;28;20175;-69
2022/06/22 10:16:28;;;;;;;11.65;2.65;;;31.60;57.10;;;;;;5048045;28;20125;-68
2022/06/22 10:19:31;;;;;;;13.50;2.60;;;31.60;57.20;;;;;;5049791;28;20060;-68
2022/06/22 10:22:15;;;;;;;14.10;2.55;;;31.70;57.40;;;;;;5046074;28;20085;-69
2022/06/22 10:25:07;;;;;;;15.85;3.15;;;31.60;57.90;;;;;;5047899;28;20128;-69
2022/06/22 10:27:54;;;;;;;14.90;3.17;;;31.60;58.30;;;;;;5047991;28;20427;-67
2022/06/22 10:30:26;;;;;;;10.10;2.78;;;31.50;59.10;;;;;;5049521;28;20097;-68
2022/06/22 10:33:06;;;;;;;20.25;3.55;;;31.50;59.50;;;;;;5049901;28;20081;-70
2022/06/22 10:36:01;;;;;;;16.65;2.97;;;31.50;59.90;;;;;;5054491;28;20072;-68
2022/06/22 10:39:20;;;;;;;20.73;3.20;;;31.50;59.70;;;;;;5054768;28;20060;-67
2022/06/22 10:45:09;;;;;;;18.95;3.30;;;31.40;62.50;;;;;;5011266;28;20079;-67
2022/06/22 10:47:43;;;;;;;25.63;3.67;;;31.40;62.80;;;;;;4969883;28;20459;-67
2022/06/22 10:50:33;;;;;;;16.95;3.83;;;31.30;62.20;;;;;;5013115;28;20096;-68
2022/06/22 10:53:36;;;;;;;11.23;2.75;;;31.00;63.50;;;;;;4996054;28;20215;-68
2022/06/22 10:56:41;;;;;;;12.32;3.47;;;30.90;64.60;;;;;;4998121;28;20190;-69
2022/06/22 10:59:16;;;;;;;13.93;3.67;;;30.90;64.60;;;;;;5011227;28;20482;-69
2022/06/22 11:01:55;;;;;;;12.57;3.00;;;30.90;64.60;;;;;;4996511;28;20106;-68
2022/06/22 11:04:58;;;;;;;15.75;3.50;;;30.80;65.30;;;;;;5010884;28;20209;-67
2022/06/22 11:07:25;;;;;;;12.10;3.65;;;30.80;65.40;;;;;;4985535;28;20447;-68
2022/06/22 11:10:08;;;;;;;13.85;3.08;;;30.90;65.50;;;;;;5011250;28;20110;-68
2022/06/22 11:12:58;;;;;;;12.98;3.55;;;30.90;66.00;;;;;;5009643;28;20180;-68
2022/06/22 11:15:42;;;;;;;16.25;3.33;;;30.60;68.40;;;;;;4996352;28;20098;-67
2022/06/22 11:18:14;;;;;;;15.15;3.95;;;30.50;69.30;;;;;;5024026;28;20071;-69
2022/06/22 11:21:16;;;;;;;28.45;4.30;;;30.50;69.40;;;;;;5054554;28;20093;-68
2022/06/22 11:23:52;;;;;;;11.68;3.40;;;30.60;69.70;;;;;;5007501;28;20493;-67
2022/06/22 11:32:24;;;;;;;19.75;4.05;;;30.40;72.50;;;;;;5009748;28;20117;-67
2022/06/22 11:35:08;;;;;;;19.40;4.00;;;30.40;74.80;;;;;;5009230;28;20087;-67
2022/06/22 11:37:46;;;;;;;16.55;3.83;;;30.10;79.00;;;;;;5010895;28;20137;-67
2022/06/22 11:40:49;;;;;;;14.32;3.53;;;30.00;81.40;;;;;;4992789;28;20075;-67
2022/06/22 11:43:51;;;;;;;14.40;3.78;;;30.10;83.10;;;;;;5009761;28;20599;-67
2022/06/22 11:46:30;;;;;;;17.25;4.20;;;29.80;83.30;;;;;;4991723;28;20677;-68
2022/06/22 11:49:26;;;;;;;12.18;3.83;;;30.00;83.40;;;;;;4992761;28;20070;-66
2022/06/22 11:52:11;;;;;;;14.65;4.03;;;30.00;82.70;;;;;;5008671;28;20111;-68
2022/06/22 11:54:48;;;;;;;17.60;4.15;;;29.90;81.90;;;;;;4992504;28;20066;-67
2022/06/22 11:57:36;;;;;;;17.30;3.85;;;29.90;82.30;;;;;;5007396;28;20108;-68
2022/06/22 12:00:12;;;;;;;15.75;5.15;;;30.00;83.10;;;;;;5053903;28;20067;-67
2022/06/22 12:03:17;;;;;;;22.85;5.18;;;29.90;84.70;;;;;;5050992;28;20164;-67
2022/06/22 12:05:54;;;;;;;22.35;6.38;;;29.90;88.80;;;;;;5054517;28;20101;-69
2022/06/22 12:08:51;;;;;;;15.45;4.65;;;29.60;90.80;;;;;;5049857;28;20074;-68
2022/06/22 12:11:42;;;;;;;20.48;5.35;;;29.40;91.50;;;;;;5050708;28;20763;-69
2022/06/22 12:17:45;;;;;;;11.48;3.60;;;29.10;90.90;;;;;;5052455;28;20158;-67
2022/06/22 12:20:17;;;;;;;16.75;3.92;;;29.10;91.10;;;;;;5051786;28;20071;-69
2022/06/22 12:23:10;;;;;;;10.52;3.53;;;29.20;90.60;;;;;;5053272;28;20079;-68
2022/06/22 12:25:57;;;;;;;11.60;3.22;;;29.20;90.40;;;;;;5019381;28;20108;-67
2022/06/22 12:28:32;;;;;;;9.20;2.70;;;29.10;88.60;;;;;;5051253;28;20080;-67
2022/06/22 12:31:05;;;;;;;13.68;3.35;;;29.00;89.70;;;;;;5051369;28;20078;-67
2022/06/22 12:33:39;;;;;;;28.00;4.20;;;29.00;89.30;;;;;;5049170;28;20110;-67
2022/06/22 12:36:18;;;;;;;30.77;4.65;;;28.80;92.60;;;;;;5047211;28;20076;-66
2022/06/22 12:38:49;;;;;;;27.73;4.40;;;28.30;95.70;;;;;;5051067;28;20429;-67
2022/06/22 12:41:52;;;;;;;19.65;3.88;;;28.10;98.20;;;;;;5049203;28;20225;-67
2022/06/22 12:44:22;;;;;;;14.15;3.53;;;28.00;98.80;;;;;;5050159;28;20079;-67
2022/06/22 12:47:02;;;;;;;16.00;3.72;;;27.70;99.30;;;;;;5050250;28;20103;-67
2022/06/22 12:49:44;;;;;;;11.68;3.88;;;27.90;99.90;;;;;;5051359;28;20079;-67
2022/06/22 12:52:34;;;;;;;17.38;4.32;;;27.80;99.90;;;;;;5052475;28;20079;-68
2022/06/22 12:55:14;;;;;;;13.68;3.55;;;27.70;99.90;;;;;;5049370;28;20104;-67
2022/06/22 12:57:50;;;;;;;13.90;3.30;;;27.90;99.90;;;;;;5051759;28;20078;-67
2022/06/22 13:00:20;;;;;;;19.65;4.05;;;28.10;98.80;;;;;;5036945;28;20071;-67
2022/06/22 13:02:49;;;;;;;17.77;3.55;;;28.10;98.30;;;;;;5050424;28;20223;-67
2022/06/22 13:05:22;;;;;;;15.10;3.60;;;28.00;97.10;;;;;;5051013;28;20103;-67
2022/06/22 13:07:57;;;;;;;18.27;2.83;;;28.00;97.70;;;;;;5051519;28;20364;-67
2022/06/22 13:10:27;;;;;;;13.82;2.75;;;28.00;98.20;;;;;;5049485;28;20566;-67
2022/06/22 13:13:09;;;;;;;13.50;2.83;;;28.00;96.50;;;;;;5050682;28;20116;-68
2022/06/22 13:16:10;;;;;;;23.38;2.85;;;28.10;95.10;;;;;;5050352;28;20057;-68
2022/06/22 13:19:01;;;;;;;14.63;2.55;;;28.30;99.90;;;;;;5043247;28;20036;-68
2022/06/22 13:21:33;;;;;;;9.88;2.97;;;29.40;96.20;;;;;;5052242;28;20024;-68
2022/06/22 13:24:13;;;;;;;8.13;2.22;;;28.50;95.10;;;;;;5050975;28;20166;-68
2022/06/22 13:27:14;;;;;;;17.88;3.38;;;28.40;90.80;;;;;;5051564;28;20093;-68
2022/06/22 13:29:43;;;;;;;24.77;3.50;;;28.50;96.80;;;;;;5011745;28;20033;-68
2022/06/22 13:32:13;;;;;;;13.30;3.08;;;28.60;90.60;;;;;;5010450;28;20080;-68
2022/06/22 13:35:05;;;;;;;14.88;3.15;;;28.70;90.60;;;;;;4991768;28;20108;-68
2022/06/22 13:37:44;;;;;;;11.45;3.03;;;28.80;87.70;;;;;;5010445;28;20079;-69
2022/06/22 13:40:47;;;;;;;17.80;2.97;;;28.90;84.40;;;;;;5010008;28;20088;-68
2022/06/22 13:43:33;;;;;;;15.82;2.58;;;29.00;83.40;;;;;;5009669;28;20134;-67
2022/06/22 13:46:26;;;;;;;26.10;2.80;;;29.10;81.20;;;;;;4992708;28;20100;-67
2022/06/22 13:48:58;;;;;;;16.58;2.80;;;29.10;80.10;;;;;;5007420;28;20084;-67
2022/06/22 13:51:46;;;;;;;12.07;1.90;;;29.20;78.90;;;;;;4992936;28;20074;-68
2022/06/22 13:54:39;;;;;;;16.77;3.03;;;29.30;77.70;;;;;;5007340;28;20145;-67
2022/06/22 13:57:35;;;;;;;18.23;2.75;;;29.40;76.60;;;;;;4994399;28;20080;-68
2022/06/22 14:00:18;;;;;;;23.50;2.30;;;29.50;74.70;;;;;;5011964;28;20130;-67
2022/06/22 14:03:00;;;;;;;12.55;2.55;;;29.60;73.10;;;;;;4992990;28;20228;-68
2022/06/22 14:05:38;;;;;;;15.85;3.05;;;29.70;72.50;;;;;;4999171;28;20226;-67
2022/06/22 14:08:15;;;;;;;17.85;3.60;;;29.80;72.50;;;;;;5049625;28;20074;-67
2022/06/22 14:10:54;;;;;;;30.02;4.25;;;29.90;71.70;;;;;;5049550;28;20078;-67
2022/06/22 14:13:31;;;;;;;28.50;3.78;;;30.10;70.80;;;;;;5030487;28;20114;-67